createdAt,value
2018-08-23T00:04:30.995Z,99.90
2018-08-23T00:09:34.332Z,99.90
2018-08-23T00:14:37.566Z,99.90
2018-08-23T00:19:40.862Z,99.90
2018-08-23T00:24:44.916Z,99.90
2018-08-23T00:29:48.975Z,99.90
2018-08-23T00:34:52.277Z,99.90
2018-08-23T00:39:56.402Z,99.90
2018-08-23T00:45:02.977Z,99.90
2018-08-23T00:50:06.298Z,99.90
2018-08-23T00:55:20.919Z,99.90
2018-08-23T01:00:25.492Z,99.90
2018-08-23T01:05:34.895Z,99.90
2018-08-23T01:10:39.604Z,99.90
2018-08-23T01:15:46.383Z,99.90
2018-08-23T01:20:50.983Z,99.90
2018-08-23T01:25:54.327Z,99.90
2018-08-23T01:31:06.884Z,99.90
2018-08-23T01:36:10.244Z,99.90
2018-08-23T01:41:13.496Z,99.90
2018-08-23T01:46:16.708Z,99.90
2018-08-23T01:51:19.990Z,99.90
2018-08-23T01:56:23.305Z,99.90
2018-08-23T02:01:27.046Z,99.90
2018-08-23T02:06:36.221Z,99.90
2018-08-23T02:11:39.465Z,99.90
2018-08-23T02:16:56.599Z,99.90
2018-08-23T02:21:59.885Z,99.90
2018-08-23T02:27:10.217Z,99.90
2018-08-23T02:32:14.102Z,99.90
2018-08-23T02:37:18.191Z,99.90
2018-08-23T02:42:21.468Z,99.90
2018-08-23T02:47:24.755Z,99.90
2018-08-23T02:52:32.208Z,99.90
2018-08-23T02:57:35.613Z,99.90
2018-08-23T03:02:38.882Z,99.90
2018-08-23T03:07:42.200Z,99.90
2018-08-23T03:12:45.492Z,99.90
2018-08-23T03:17:55.043Z,99.90
2018-08-23T03:22:58.279Z,99.90
2018-08-23T03:28:01.527Z,99.90
2018-08-23T03:33:04.784Z,99.90
2018-08-23T03:38:08.029Z,99.90
2018-08-23T03:43:11.292Z,99.90
2018-08-23T03:48:14.550Z,99.90
2018-08-23T03:53:17.824Z,99.90
2018-08-23T03:58:21.907Z,99.90
2018-08-23T04:03:25.993Z,99.90
2018-08-23T04:08:30.018Z,99.90
2018-08-23T04:13:33.254Z,99.90
2018-08-23T04:18:37.386Z,99.90
2018-08-23T04:23:41.519Z,99.90
2018-08-23T04:28:45.473Z,99.90
2018-08-23T04:33:49.003Z,99.90
2018-08-23T04:38:56.534Z,99.90
2018-08-23T04:44:05.883Z,99.90
2018-08-23T04:49:09.298Z,99.90
2018-08-23T04:54:12.534Z,99.90
2018-08-23T04:59:15.919Z,99.90
2018-08-23T05:04:19.744Z,99.90
2018-08-23T05:09:23.556Z,99.90
2018-08-23T05:14:27.608Z,99.90
2018-08-23T05:19:30.882Z,99.90
2018-08-23T05:24:34.107Z,99.90
2018-08-23T05:29:37.368Z,99.90
2018-08-23T05:34:40.736Z,99.90
2018-08-23T05:39:50.915Z,99.90
2018-08-23T05:50:33.100Z,99.90
2018-08-23T05:55:38.483Z,99.90
2018-08-23T06:00:44.274Z,99.90
2018-08-23T06:05:49.876Z,99.90
2018-08-23T06:10:59.204Z,99.90
2018-08-23T06:16:05.187Z,99.90
2018-08-23T06:21:10.114Z,99.90
2018-08-23T06:26:13.451Z,99.90
2018-08-23T06:31:16.688Z,99.90
2018-08-23T06:36:20.048Z,99.90
2018-08-23T06:41:23.382Z,99.90
2018-08-23T06:46:26.683Z,99.90
2018-08-23T06:51:30.214Z,99.90
2018-08-23T06:56:35.372Z,99.90
2018-08-23T07:01:44.260Z,99.90
2018-08-23T07:06:47.600Z,99.90
2018-08-23T07:11:50.999Z,99.90
2018-08-23T07:16:54.295Z,99.90
2018-08-23T07:21:58.927Z,99.90
2018-08-23T07:27:02.281Z,99.90
2018-08-23T07:32:07.091Z,99.90
2018-08-23T07:37:13.980Z,99.90
2018-08-23T07:42:17.329Z,99.90
2018-08-23T07:47:21.054Z,99.90
2018-08-23T07:52:25.172Z,99.90
2018-08-23T07:57:30.525Z,99.90
2018-08-23T08:02:33.855Z,99.90
2018-08-23T08:07:37.165Z,99.90
2018-08-23T08:12:45.803Z,99.90
2018-08-23T08:23:23.143Z,99.90
2018-08-23T08:28:26.495Z,99.90
2018-08-23T08:33:33.473Z,99.90
2018-08-23T08:38:37.010Z,99.90
2018-08-23T08:43:43.043Z,99.90
2018-08-23T08:48:47.579Z,99.90
2018-08-23T08:59:09.426Z,99.90
2018-08-23T09:04:24.992Z,99.60
2018-08-23T09:09:32.464Z,99.10
2018-08-23T09:14:36.794Z,99.00
2018-08-23T09:19:51.722Z,98.20
2018-08-23T09:24:55.077Z,97.50
2018-08-23T09:29:58.420Z,95.40
2018-08-23T09:35:03.203Z,94.30
2018-08-23T09:40:06.792Z,94.40
2018-08-23T09:45:18.034Z,94.10
2018-08-23T09:50:21.345Z,93.50
2018-08-23T09:55:28.251Z,93.00
2018-08-23T10:00:36.984Z,91.70
2018-08-23T10:05:47.680Z,90.60
2018-08-23T10:10:56.458Z,90.60
2018-08-23T10:16:05.152Z,90.20
2018-08-23T10:21:08.408Z,90.00
2018-08-23T10:26:27.946Z,86.80
2018-08-23T10:31:31.259Z,82.60
2018-08-23T10:36:34.642Z,84.90
2018-08-23T10:41:37.942Z,83.60
2018-08-23T10:46:46.792Z,83.70
2018-08-23T10:51:50.188Z,81.30
2018-08-23T10:56:53.455Z,81.10
2018-08-23T11:01:56.772Z,78.30
2018-08-23T11:07:00.064Z,77.20
2018-08-23T11:12:03.311Z,76.70
2018-08-23T11:17:12.389Z,76.70
2018-08-23T11:22:16.209Z,74.00
2018-08-23T11:27:19.594Z,76.60
2018-08-23T11:32:23.842Z,74.30
2018-08-23T11:37:27.162Z,75.10
2018-08-23T11:42:30.518Z,70.10
2018-08-23T11:47:33.943Z,67.10
2018-08-23T11:52:37.357Z,61.60
2018-08-23T11:57:40.657Z,59.50
2018-08-23T12:02:44.484Z,59.70
2018-08-23T12:07:53.230Z,56.00
2018-08-23T12:12:56.603Z,57.10
2018-08-23T12:18:00.492Z,57.00
2018-08-23T12:23:03.807Z,57.40
2018-08-23T12:28:12.532Z,58.40
2018-08-23T12:33:15.870Z,58.60
2018-08-23T12:38:24.677Z,58.10
2018-08-23T12:43:34.608Z,58.80
2018-08-23T12:48:37.880Z,58.90
2018-08-23T12:53:41.192Z,58.10
2018-08-23T12:58:44.675Z,58.70
2018-08-23T13:03:48.069Z,57.90
2018-08-23T13:08:52.576Z,59.10
2018-08-23T13:13:56.300Z,60.80
2018-08-23T13:18:59.629Z,58.10
2018-08-23T13:24:03.255Z,58.50
2018-08-23T13:29:06.592Z,58.50
2018-08-23T13:34:09.915Z,58.90
2018-08-23T13:39:14.292Z,59.60
2018-08-23T13:44:17.649Z,58.30
2018-08-23T13:49:20.924Z,57.60
2018-08-23T13:54:32.188Z,58.00
2018-08-23T13:59:35.676Z,57.80
2018-08-23T14:04:39.004Z,57.90
2018-08-23T14:09:42.307Z,56.70
2018-08-23T14:14:45.643Z,55.40
2018-08-23T14:27:22.313Z,53.90
2018-08-23T14:32:45.473Z,53.90
2018-08-23T16:46:29.641Z,54.40
2018-08-23T16:51:44.228Z,56.40
2018-08-23T16:56:56.780Z,55.90
2018-08-23T17:02:08.821Z,56.70
2018-08-23T17:07:20.021Z,57.20
2018-08-23T17:12:34.570Z,57.20
2018-08-23T17:17:44.739Z,58.00
2018-08-23T17:22:59.992Z,58.50
2018-08-23T17:28:13.902Z,59.60
2018-08-23T17:33:18.964Z,60.80
2018-08-23T17:38:26.840Z,61.50
2018-08-23T17:44:11.564Z,62.40
2018-08-23T17:54:55.629Z,65.80
2018-08-23T17:59:59.432Z,67.10
2018-08-23T18:05:15.143Z,67.60
2018-08-23T18:16:04.402Z,69.50
2018-08-23T18:21:13.075Z,70.30
2018-08-23T18:26:25.587Z,71.30
2018-08-23T18:31:30.228Z,71.80
2018-08-23T18:36:34.988Z,73.00
2018-08-23T18:41:42.030Z,73.70
2018-08-23T18:46:45.641Z,74.40
2018-08-23T18:51:54.966Z,75.30
2018-08-23T18:56:59.641Z,76.70
2018-08-23T19:07:52.411Z,78.10
2018-08-23T19:12:57.619Z,79.60
2018-08-23T19:18:06.556Z,82.70
2018-08-23T19:51:42.886Z,83.80
2018-08-23T19:56:51.497Z,94.80
2018-08-23T20:07:40.184Z,97.50
2018-08-23T20:18:29.214Z,99.90
2018-08-23T20:23:38.752Z,99.90
2018-08-23T20:28:43.105Z,99.90
2018-08-23T20:33:49.041Z,99.90
2018-08-23T20:38:52.381Z,99.90
2018-08-23T20:43:55.812Z,99.90
2018-08-23T20:48:59.267Z,99.90
2018-08-23T20:54:02.612Z,99.90
2018-08-23T20:59:06.294Z,99.90
2018-08-23T21:04:09.813Z,99.90
2018-08-23T21:09:13.749Z,99.90
2018-08-23T21:14:17.184Z,99.90
2018-08-23T21:19:20.484Z,99.90
2018-08-23T21:24:23.848Z,99.90
2018-08-23T21:29:27.180Z,99.90
2018-08-23T21:34:30.555Z,99.90
2018-08-23T21:39:33.938Z,99.90
2018-08-23T21:44:37.424Z,99.90
2018-08-23T21:49:40.743Z,99.90
2018-08-23T21:54:44.310Z,99.90
2018-08-23T21:59:47.728Z,99.90
2018-08-23T22:04:55.392Z,99.90
2018-08-23T22:09:58.714Z,99.90
2018-08-23T22:15:01.982Z,99.90
2018-08-23T22:20:05.283Z,99.90
2018-08-23T22:25:08.624Z,99.90
2018-08-23T22:30:11.924Z,99.90
2018-08-23T22:35:15.309Z,99.90
2018-08-23T22:40:18.662Z,99.90
2018-08-23T22:45:21.986Z,99.90
2018-08-23T22:50:25.992Z,99.90
2018-08-23T22:55:29.329Z,99.90
2018-08-23T23:00:38.132Z,99.90
2018-08-23T23:05:41.541Z,99.90
2018-08-23T23:10:44.912Z,99.90
2018-08-23T23:15:48.264Z,99.90
2018-08-23T23:20:51.962Z,99.90
2018-08-23T23:25:55.238Z,99.90
2018-08-23T23:30:58.535Z,99.90
2018-08-23T23:36:01.887Z,99.90
2018-08-23T23:41:05.516Z,99.90
2018-08-23T23:46:08.879Z,99.90
2018-08-23T23:51:12.179Z,99.90
2018-08-23T23:56:15.528Z,99.90
